Alix Anne Eckstein — WDH6446 — position and weather

sailwx.info

Track history (hours):
 
Tides and Currents Weather Stations Pressure Air Temp Water Temp Dewpoint Dewpoint Depression Visibility Wind Speed Wind Dir Waves Ship Positions

Alix Anne Eckstein

Owner: Marquette Transportation Co. LLC, Paducah, KY. More information available from US FCC via Universal Licensing System and Coast Guard Vessel Documentation Center.

Last reported at 2018-Feb-15 09:01 UTC. Time now 2018-Feb-18 04:52 UTC.
Position N 31°28' W 091°31'.

Length 48 m; draft 3.2 m.

Type: Tow > 200 m length. MMSI: 367638050.

Date/timePositionNaut miles runAvg speedWind from/ knotsBaromVisibWave heightAir tempDewpointWater temp
2018-Feb-15 09:01N 31°28' W 091°31'40 4.1
2018-Feb-14 23:08N 32°01' W 091°04'110.5
2018-Feb-14 22:59N 32°03' W 091°03'5 9.3
2018-Feb-14 22:30N 32°07' W 091°06'2 4.1
2018-Feb-14 21:58N 32°08' W 091°04'4 7.8
2018-Feb-14 21:31N 32°09' W 091°00'5 9.9
2018-Feb-14 21:00N 32°14' W 090°59'5 9.4
2018-Feb-14 20:30N 32°18' W 090°56'3 6.2
2018-Feb-14 20:00N 32°21' W 090°56'4 8.3
2018-Feb-14 19:30N 32°22' W 091°00'4 7.8
2018-Feb-14 19:01N 32°26' W 091°01'5 9.5
2018-Feb-14 18:30N 32°28' W 091°06'5 9.4
2018-Feb-14 18:00N 32°33' W 091°06'5 9.2
2018-Feb-14 17:30N 32°36' W 091°09'  
Track history (hours):
 
Tides and Currents Weather Stations Pressure Air Temp Water Temp Dewpoint Dewpoint Depression Visibility Wind Speed Wind Dir Waves Ship Positions

Alix Anne Eckstein

Owner: Marquette Transportation Co. LLC, Paducah, KY. More information available from US FCC via Universal Licensing System and Coast Guard Vessel Documentation Center.

Last reported at 2018-Feb-15 09:01 UTC. Time now 2018-Feb-18 04:52 UTC.
Position N 31°28' W 091°31'.

Length 48 m; draft 3.2 m.

Type: Tow > 200 m length. MMSI: 367638050.

Date/timePositionNaut miles runAvg speedWind from/ knotsBaromVisibWave heightAir tempDewpointWater temp
2018-Feb-15 09:01N 31°28' W 091°31'40 4.1
2018-Feb-14 23:08N 32°01' W 091°04'110.5
2018-Feb-14 22:59N 32°03' W 091°03'5 9.3
2018-Feb-14 22:30N 32°07' W 091°06'2 4.1
2018-Feb-14 21:58N 32°08' W 091°04'4 7.8
2018-Feb-14 21:31N 32°09' W 091°00'5 9.9
2018-Feb-14 21:00N 32°14' W 090°59'5 9.4
2018-Feb-14 20:30N 32°18' W 090°56'3 6.2
2018-Feb-14 20:00N 32°21' W 090°56'4 8.3
2018-Feb-14 19:30N 32°22' W 091°00'4 7.8
2018-Feb-14 19:01N 32°26' W 091°01'5 9.5
2018-Feb-14 18:30N 32°28' W 091°06'5 9.4
2018-Feb-14 18:00N 32°33' W 091°06'5 9.2
2018-Feb-14 17:30N 32°36' W 091°09'  

Dump ship's entire track history